Terminal Aerodrome Forecast
Issued by NWS Knoxville/Tri Cities, TN

Home | Current Version | Previous Version | Text Only | Print | Product List | Glossary On
Versions: 1 2 3 4 5 6 7 8 9 10 11 12 13 14 15 16 17 18 19 20 21 22 23 24 25 26 27 28 29 30
000
FTUS44 KMRX 010525
TAFCHA
TAF
KCHA 010525Z 0106/0206 13003KT P6SM OVC100
     FM011600 16008KT P6SM BKN025
     FM012000 17012KT 4SM -RA OVC012
     FM020000 18012KT 2SM RA OVC007=

USA.gov is the U.S. government's official web portal to all federal, state and local government web resources and services.